Portada
METAR-TAF:

METAR-TAF

Aeroports :

Mount Gambier, Austràlia

latitud: 37-44-44S, longitud: 140-47-07E, altitud: 65 m

Observació

L'informe es va fer fa 15 minuts, a les 21:00 UTC
Vent 8 kt del Oest/Nord-Oest
Temperatura 11°C
Humitat 100%
Pressió 1016 hPa
Visibilitat 10 km o més
Núvols disperses a una alçada de 600 ft
Cel ennuvolat a una alçada de 1100 ft
Cel cobert a una alçada de 1700 ft
xàfecs de pluja

METAR: YMTG 132100Z AUTO 29008KT 9999 -SHRA SCT006 BKN011 OVC017 11/11 Q1016

Hora: 07:45 (21:15 UTC)


TAF: manca

Observacions i pronòstics meteorològics de més de 4000 aeroports (METAR i TAF).

Les estacions disponibles són els punts grocs i vermells al mapa.

Posi el ratolí al punt desitjat per veure el nom de l'estació.

Feu clic per veure les observacions i els pronòstics meteorològics.

Per canviar el mapa: feu clic els botons verds amb una creu de color negre per apropar; al botó verd amb un guió per allunyar la imatge; o en les fletxes verdes per a mapes adjacents.


METAR-TAF: